sensor_id;sensor_type;location;lat;lon;timestamp;temperature;humidity
16273;DHT22;8244;50.044;9.006;2023-06-04T00:03:38;15.30;75.30
16273;DHT22;8244;50.044;9.006;2023-06-04T00:08:40;15.10;75.10
16273;DHT22;8244;50.044;9.006;2023-06-04T00:13:43;15.00;75.60
16273;DHT22;8244;50.044;9.006;2023-06-04T00:18:45;14.90;76.60
16273;DHT22;8244;50.044;9.006;2023-06-04T00:23:47;14.80;76.50
16273;DHT22;8244;50.044;9.006;2023-06-04T00:28:50;14.70;76.60
16273;DHT22;8244;50.044;9.006;2023-06-04T00:33:51;14.60;77.00
16273;DHT22;8244;50.044;9.006;2023-06-04T00:38:53;14.50;77.10
16273;DHT22;8244;50.044;9.006;2023-06-04T00:43:56;14.50;77.80
16273;DHT22;8244;50.044;9.006;2023-06-04T00:48:58;14.30;78.60
16273;DHT22;8244;50.044;9.006;2023-06-04T00:54:02;14.20;79.20
16273;DHT22;8244;50.044;9.006;2023-06-04T00:59:11;14.10;79.50
16273;DHT22;8244;50.044;9.006;2023-06-04T01:04:18;13.90;79.60
16273;DHT22;8244;50.044;9.006;2023-06-04T01:09:22;13.90;79.90
16273;DHT22;8244;50.044;9.006;2023-06-04T01:14:25;13.80;80.60
16273;DHT22;8244;50.044;9.006;2023-06-04T01:19:53;13.70;80.50
16273;DHT22;8244;50.044;9.006;2023-06-04T01:25:03;13.50;80.80
16273;DHT22;8244;50.044;9.006;2023-06-04T01:30:08;13.40;81.30
16273;DHT22;8244;50.044;9.006;2023-06-04T01:35:11;13.30;81.60
16273;DHT22;8244;50.044;9.006;2023-06-04T01:40:14;13.10;82.30
16273;DHT22;8244;50.044;9.006;2023-06-04T01:45:17;13.00;82.70
16273;DHT22;8244;50.044;9.006;2023-06-04T01:50:19;12.90;82.80
16273;DHT22;8244;50.044;9.006;2023-06-04T01:55:20;12.70;83.10
16273;DHT22;8244;50.044;9.006;2023-06-04T02:00:24;12.60;84.10
16273;DHT22;8244;50.044;9.006;2023-06-04T02:05:26;12.40;84.90
16273;DHT22;8244;50.044;9.006;2023-06-04T02:10:27;12.30;85.60
16273;DHT22;8244;50.044;9.006;2023-06-04T02:15:32;12.10;86.70
16273;DHT22;8244;50.044;9.006;2023-06-04T02:20:33;12.00;88.90
16273;DHT22;8244;50.044;9.006;2023-06-04T02:25:35;11.80;89.40
16273;DHT22;8244;50.044;9.006;2023-06-04T02:30:38;11.70;90.10
16273;DHT22;8244;50.044;9.006;2023-06-04T02:35:40;11.60;90.40
16273;DHT22;8244;50.044;9.006;2023-06-04T02:40:42;11.40;91.00
16273;DHT22;8244;50.044;9.006;2023-06-04T02:45:45;11.30;90.70
16273;DHT22;8244;50.044;9.006;2023-06-04T02:50:47;11.20;91.10
16273;DHT22;8244;50.044;9.006;2023-06-04T02:55:49;11.10;91.80
16273;DHT22;8244;50.044;9.006;2023-06-04T03:00:53;11.00;91.90
16273;DHT22;8244;50.044;9.006;2023-06-04T03:05:54;11.00;92.30
16273;DHT22;8244;50.044;9.006;2023-06-04T03:10:56;10.90;92.70
16273;DHT22;8244;50.044;9.006;2023-06-04T03:15:59;10.80;93.40
16273;DHT22;8244;50.044;9.006;2023-06-04T03:21:01;10.70;93.50
16273;DHT22;8244;50.044;9.006;2023-06-04T03:26:04;10.70;93.50
16273;DHT22;8244;50.044;9.006;2023-06-04T03:31:07;10.60;93.60
16273;DHT22;8244;50.044;9.006;2023-06-04T03:36:09;10.50;93.90
16273;DHT22;8244;50.044;9.006;2023-06-04T03:41:10;10.50;93.80
16273;DHT22;8244;50.044;9.006;2023-06-04T03:46:14;10.50;93.80
16273;DHT22;8244;50.044;9.006;2023-06-04T03:51:15;10.40;94.50
16273;DHT22;8244;50.044;9.006;2023-06-04T03:56:17;10.40;94.30
16273;DHT22;8244;50.044;9.006;2023-06-04T04:01:21;10.50;93.90
16273;DHT22;8244;50.044;9.006;2023-06-04T04:06:24;10.50;93.80
16273;DHT22;8244;50.044;9.006;2023-06-04T04:11:26;10.50;94.00
16273;DHT22;8244;50.044;9.006;2023-06-04T04:16:29;10.60;94.40
16273;DHT22;8244;50.044;9.006;2023-06-04T04:21:31;10.60;95.30
16273;DHT22;8244;50.044;9.006;2023-06-04T04:26:32;10.70;95.50
16273;DHT22;8244;50.044;9.006;2023-06-04T04:31:35;10.80;95.80
16273;DHT22;8244;50.044;9.006;2023-06-04T04:36:38;11.00;96.90
16273;DHT22;8244;50.044;9.006;2023-06-04T04:41:40;11.30;96.10
16273;DHT22;8244;50.044;9.006;2023-06-04T04:46:44;11.60;95.20
16273;DHT22;8244;50.044;9.006;2023-06-04T04:51:46;12.10;94.60
16273;DHT22;8244;50.044;9.006;2023-06-04T04:56:47;12.60;93.80
16273;DHT22;8244;50.044;9.006;2023-06-04T05:01:50;13.30;92.40
16273;DHT22;8244;50.044;9.006;2023-06-04T05:06:52;14.20;91.30
16273;DHT22;8244;50.044;9.006;2023-06-04T05:11:53;15.60;86.50
16273;DHT22;8244;50.044;9.006;2023-06-04T05:16:57;17.10;84.40
16273;DHT22;8244;50.044;9.006;2023-06-04T05:21:58;18.50;78.90
16273;DHT22;8244;50.044;9.006;2023-06-04T05:27:00;19.80;73.20
16273;DHT22;8244;50.044;9.006;2023-06-04T05:32:06;21.00;69.90
16273;DHT22;8244;50.044;9.006;2023-06-04T05:37:08;21.80;67.50
16273;DHT22;8244;50.044;9.006;2023-06-04T05:42:09;22.60;67.10
16273;DHT22;8244;50.044;9.006;2023-06-04T05:47:12;23.40;64.20
16273;DHT22;8244;50.044;9.006;2023-06-04T05:52:14;24.10;61.70
16273;DHT22;8244;50.044;9.006;2023-06-04T05:57:16;24.70;60.50
16273;DHT22;8244;50.044;9.006;2023-06-04T06:02:19;25.40;59.90
16273;DHT22;8244;50.044;9.006;2023-06-04T06:07:20;26.10;59.30
16273;DHT22;8244;50.044;9.006;2023-06-04T06:12:22;26.60;58.40
16273;DHT22;8244;50.044;9.006;2023-06-04T06:17:25;27.00;57.60
16273;DHT22;8244;50.044;9.006;2023-06-04T06:22:29;27.50;56.70
16273;DHT22;8244;50.044;9.006;2023-06-04T06:27:30;27.80;56.00
16273;DHT22;8244;50.044;9.006;2023-06-04T06:32:33;28.30;55.70
16273;DHT22;8244;50.044;9.006;2023-06-04T06:37:35;28.80;54.30
16273;DHT22;8244;50.044;9.006;2023-06-04T06:42:42;29.10;54.90
16273;DHT22;8244;50.044;9.006;2023-06-04T06:47:45;29.30;53.30
16273;DHT22;8244;50.044;9.006;2023-06-04T06:52:47;29.20;53.00
16273;DHT22;8244;50.044;9.006;2023-06-04T06:57:48;29.30;54.20
16273;DHT22;8244;50.044;9.006;2023-06-04T07:02:51;29.50;52.60
16273;DHT22;8244;50.044;9.006;2023-06-04T07:07:53;29.80;52.50
16273;DHT22;8244;50.044;9.006;2023-06-04T07:12:57;29.90;53.60
16273;DHT22;8244;50.044;9.006;2023-06-04T07:18:00;30.10;52.90
16273;DHT22;8244;50.044;9.006;2023-06-04T07:23:02;30.50;50.40
16273;DHT22;8244;50.044;9.006;2023-06-04T07:28:04;30.90;51.40
16273;DHT22;8244;50.044;9.006;2023-06-04T07:33:07;31.20;50.60
16273;DHT22;8244;50.044;9.006;2023-06-04T07:38:09;31.60;51.50
16273;DHT22;8244;50.044;9.006;2023-06-04T07:43:11;31.80;49.10
16273;DHT22;8244;50.044;9.006;2023-06-04T07:48:14;31.90;50.00
16273;DHT22;8244;50.044;9.006;2023-06-04T07:53:16;32.20;50.70
16273;DHT22;8244;50.044;9.006;2023-06-04T07:58:18;32.40;51.30
16273;DHT22;8244;50.044;9.006;2023-06-04T08:03:22;32.80;49.50
16273;DHT22;8244;50.044;9.006;2023-06-04T08:08:25;33.10;51.30
16273;DHT22;8244;50.044;9.006;2023-06-04T08:13:26;33.40;49.30
16273;DHT22;8244;50.044;9.006;2023-06-04T08:18:29;33.70;49.80
16273;DHT22;8244;50.044;9.006;2023-06-04T08:23:31;33.10;48.60
16273;DHT22;8244;50.044;9.006;2023-06-04T08:28:33;33.30;46.70
16273;DHT22;8244;50.044;9.006;2023-06-04T08:33:36;33.50;47.10
16273;DHT22;8244;50.044;9.006;2023-06-04T08:38:38;32.90;46.20
16273;DHT22;8244;50.044;9.006;2023-06-04T08:43:40;33.20;45.20
16273;DHT22;8244;50.044;9.006;2023-06-04T08:48:45;33.50;45.60
16273;DHT22;8244;50.044;9.006;2023-06-04T08:53:50;33.60;47.10
16273;DHT22;8244;50.044;9.006;2023-06-04T08:58:56;34.50;47.70
16273;DHT22;8244;50.044;9.006;2023-06-04T09:04:04;34.70;44.00
16273;DHT22;8244;50.044;9.006;2023-06-04T09:09:09;34.90;46.80
16273;DHT22;8244;50.044;9.006;2023-06-04T09:14:14;35.00;45.00
16273;DHT22;8244;50.044;9.006;2023-06-04T09:19:19;34.80;45.00
16273;DHT22;8244;50.044;9.006;2023-06-04T09:24:22;35.30;43.40
16273;DHT22;8244;50.044;9.006;2023-06-04T09:29:26;35.60;40.30
16273;DHT22;8244;50.044;9.006;2023-06-04T09:34:29;34.80;41.40
16273;DHT22;8244;50.044;9.006;2023-06-04T09:39:31;34.60;44.30
16273;DHT22;8244;50.044;9.006;2023-06-04T09:44:42;35.10;44.70
16273;DHT22;8244;50.044;9.006;2023-06-04T09:49:47;35.40;44.60
16273;DHT22;8244;50.044;9.006;2023-06-04T09:54:50;36.10;41.70
16273;DHT22;8244;50.044;9.006;2023-06-04T09:59:53;35.90;42.00
16273;DHT22;8244;50.044;9.006;2023-06-04T10:04:58;36.10;44.80
16273;DHT22;8244;50.044;9.006;2023-06-04T10:10:01;35.80;41.10
16273;DHT22;8244;50.044;9.006;2023-06-04T10:15:07;35.60;40.20
16273;DHT22;8244;50.044;9.006;2023-06-04T10:20:13;36.10;42.20
16273;DHT22;8244;50.044;9.006;2023-06-04T10:25:15;35.40;41.90
16273;DHT22;8244;50.044;9.006;2023-06-04T10:30:18;35.30;39.60
16273;DHT22;8244;50.044;9.006;2023-06-04T10:35:30;35.20;39.40
16273;DHT22;8244;50.044;9.006;2023-06-04T10:40:33;34.50;40.40
16273;DHT22;8244;50.044;9.006;2023-06-04T10:45:35;34.60;42.20
16273;DHT22;8244;50.044;9.006;2023-06-04T10:50:49;35.30;41.60
16273;DHT22;8244;50.044;9.006;2023-06-04T10:55:52;35.50;41.90
16273;DHT22;8244;50.044;9.006;2023-06-04T11:00:54;36.40;42.90
16273;DHT22;8244;50.044;9.006;2023-06-04T11:05:57;36.70;38.80
16273;DHT22;8244;50.044;9.006;2023-06-04T11:11:10;35.60;38.90
16273;DHT22;8244;50.044;9.006;2023-06-04T11:16:16;34.70;40.10
16273;DHT22;8244;50.044;9.006;2023-06-04T11:21:19;34.60;40.50
16273;DHT22;8244;50.044;9.006;2023-06-04T11:26:21;34.70;39.80
16273;DHT22;8244;50.044;9.006;2023-06-04T11:31:26;35.30;40.10
16273;DHT22;8244;50.044;9.006;2023-06-04T11:36:29;35.90;39.40
16273;DHT22;8244;50.044;9.006;2023-06-04T11:41:34;35.80;41.40
16273;DHT22;8244;50.044;9.006;2023-06-04T11:46:40;35.90;41.30
16273;DHT22;8244;50.044;9.006;2023-06-04T11:51:46;36.60;38.10
16273;DHT22;8244;50.044;9.006;2023-06-04T11:56:49;36.70;39.70
16273;DHT22;8244;50.044;9.006;2023-06-04T12:01:52;36.90;39.50
16273;DHT22;8244;50.044;9.006;2023-06-04T12:06:56;35.90;40.90
16273;DHT22;8244;50.044;9.006;2023-06-04T12:11:59;35.80;38.60
16273;DHT22;8244;50.044;9.006;2023-06-04T12:17:02;35.80;40.00
16273;DHT22;8244;50.044;9.006;2023-06-04T12:22:06;35.70;37.60
16273;DHT22;8244;50.044;9.006;2023-06-04T12:27:09;36.00;39.20
16273;DHT22;8244;50.044;9.006;2023-06-04T12:32:11;36.40;40.10
16273;DHT22;8244;50.044;9.006;2023-06-04T12:37:14;36.40;39.30
16273;DHT22;8244;50.044;9.006;2023-06-04T12:42:17;36.10;39.80
16273;DHT22;8244;50.044;9.006;2023-06-04T12:47:19;35.70;38.30
16273;DHT22;8244;50.044;9.006;2023-06-04T12:52:23;36.00;39.80
16273;DHT22;8244;50.044;9.006;2023-06-04T12:57:24;35.70;41.10
16273;DHT22;8244;50.044;9.006;2023-06-04T13:02:26;36.30;37.80
16273;DHT22;8244;50.044;9.006;2023-06-04T13:07:29;36.40;37.00
16273;DHT22;8244;50.044;9.006;2023-06-04T13:12:31;36.40;37.90
16273;DHT22;8244;50.044;9.006;2023-06-04T13:17:32;37.00;38.60
16273;DHT22;8244;50.044;9.006;2023-06-04T13:22:36;36.50;36.60
16273;DHT22;8244;50.044;9.006;2023-06-04T13:27:37;36.30;38.80
16273;DHT22;8244;50.044;9.006;2023-06-04T13:32:39;36.00;37.20
16273;DHT22;8244;50.044;9.006;2023-06-04T13:37:42;36.00;38.50
16273;DHT22;8244;50.044;9.006;2023-06-04T13:42:45;36.10;39.00
16273;DHT22;8244;50.044;9.006;2023-06-04T13:47:47;36.40;39.00
16273;DHT22;8244;50.044;9.006;2023-06-04T13:52:50;36.80;38.50
16273;DHT22;8244;50.044;9.006;2023-06-04T13:57:53;36.30;37.50
16273;DHT22;8244;50.044;9.006;2023-06-04T14:02:54;36.30;38.70
16273;DHT22;8244;50.044;9.006;2023-06-04T14:07:57;36.60;39.20
16273;DHT22;8244;50.044;9.006;2023-06-04T14:12:59;36.90;38.60
16273;DHT22;8244;50.044;9.006;2023-06-04T14:18:01;36.70;38.20
16273;DHT22;8244;50.044;9.006;2023-06-04T14:23:04;36.60;37.00
16273;DHT22;8244;50.044;9.006;2023-06-04T14:28:06;36.70;37.70
16273;DHT22;8244;50.044;9.006;2023-06-04T14:33:08;36.80;39.00
16273;DHT22;8244;50.044;9.006;2023-06-04T14:38:11;36.80;37.30
16273;DHT22;8244;50.044;9.006;2023-06-04T14:43:13;36.80;39.50
16273;DHT22;8244;50.044;9.006;2023-06-04T14:48:15;36.80;38.40
16273;DHT22;8244;50.044;9.006;2023-06-04T14:53:18;36.60;38.60
16273;DHT22;8244;50.044;9.006;2023-06-04T14:58:20;36.50;41.00
16273;DHT22;8244;50.044;9.006;2023-06-04T15:03:22;36.60;38.40
16273;DHT22;8244;50.044;9.006;2023-06-04T15:08:25;35.90;40.20
16273;DHT22;8244;50.044;9.006;2023-06-04T15:13:27;35.20;39.90
16273;DHT22;8244;50.044;9.006;2023-06-04T15:18:29;34.90;41.80
16273;DHT22;8244;50.044;9.006;2023-06-04T15:23:31;34.90;39.70
16273;DHT22;8244;50.044;9.006;2023-06-04T15:28:33;34.90;41.60
16273;DHT22;8244;50.044;9.006;2023-06-04T15:33:35;34.60;39.20
16273;DHT22;8244;50.044;9.006;2023-06-04T15:38:38;34.30;41.70
16273;DHT22;8244;50.044;9.006;2023-06-04T15:43:40;34.50;41.40
16273;DHT22;8244;50.044;9.006;2023-06-04T15:48:42;34.70;39.40
16273;DHT22;8244;50.044;9.006;2023-06-04T15:53:45;34.00;40.30
16273;DHT22;8244;50.044;9.006;2023-06-04T15:58:47;33.40;41.50
16273;DHT22;8244;50.044;9.006;2023-06-04T16:03:50;33.40;41.40
16273;DHT22;8244;50.044;9.006;2023-06-04T16:08:54;33.40;41.80
16273;DHT22;8244;50.044;9.006;2023-06-04T16:13:55;33.50;42.10
16273;DHT22;8244;50.044;9.006;2023-06-04T16:18:58;33.20;41.50
16273;DHT22;8244;50.044;9.006;2023-06-04T16:24:01;33.00;42.00
16273;DHT22;8244;50.044;9.006;2023-06-04T16:29:03;32.70;42.10
16273;DHT22;8244;50.044;9.006;2023-06-04T16:34:05;32.40;41.80
16273;DHT22;8244;50.044;9.006;2023-06-04T16:39:08;32.10;42.10
16273;DHT22;8244;50.044;9.006;2023-06-04T16:44:11;31.80;42.40
16273;DHT22;8244;50.044;9.006;2023-06-04T16:49:12;31.40;44.90
16273;DHT22;8244;50.044;9.006;2023-06-04T16:54:15;31.10;44.60
16273;DHT22;8244;50.044;9.006;2023-06-04T16:59:18;30.80;45.20
16273;DHT22;8244;50.044;9.006;2023-06-04T17:04:20;30.60;46.60
16273;DHT22;8244;50.044;9.006;2023-06-04T17:09:23;30.10;47.90
16273;DHT22;8244;50.044;9.006;2023-06-04T17:14:25;29.90;47.50
16273;DHT22;8244;50.044;9.006;2023-06-04T17:19:27;29.50;47.30
16273;DHT22;8244;50.044;9.006;2023-06-04T17:24:33;29.20;46.10
16273;DHT22;8244;50.044;9.006;2023-06-04T17:29:34;28.80;48.80
16273;DHT22;8244;50.044;9.006;2023-06-04T17:34:36;28.40;49.70
16273;DHT22;8244;50.044;9.006;2023-06-04T17:39:39;28.10;48.20
16273;DHT22;8244;50.044;9.006;2023-06-04T17:44:41;27.70;50.30
16273;DHT22;8244;50.044;9.006;2023-06-04T17:49:43;27.10;50.80
16273;DHT22;8244;50.044;9.006;2023-06-04T17:54:47;26.90;50.20
16273;DHT22;8244;50.044;9.006;2023-06-04T17:59:49;26.80;50.00
16273;DHT22;8244;50.044;9.006;2023-06-04T18:04:51;26.50;50.60
16273;DHT22;8244;50.044;9.006;2023-06-04T18:09:54;26.20;50.90
16273;DHT22;8244;50.044;9.006;2023-06-04T18:14:56;26.00;51.40
16273;DHT22;8244;50.044;9.006;2023-06-04T18:19:58;25.90;52.20
16273;DHT22;8244;50.044;9.006;2023-06-04T18:25:01;25.70;51.10
16273;DHT22;8244;50.044;9.006;2023-06-04T18:30:04;25.50;50.00
16273;DHT22;8244;50.044;9.006;2023-06-04T18:35:08;25.30;52.80
16273;DHT22;8244;50.044;9.006;2023-06-04T18:40:12;25.00;52.10
16273;DHT22;8244;50.044;9.006;2023-06-04T18:45:16;24.70;53.40
16273;DHT22;8244;50.044;9.006;2023-06-04T18:50:17;24.40;53.90
16273;DHT22;8244;50.044;9.006;2023-06-04T18:55:21;24.20;52.60
16273;DHT22;8244;50.044;9.006;2023-06-04T19:00:23;23.90;53.20
16273;DHT22;8244;50.044;9.006;2023-06-04T19:05:28;23.80;54.10
16273;DHT22;8244;50.044;9.006;2023-06-04T19:10:31;23.50;53.70
16273;DHT22;8244;50.044;9.006;2023-06-04T19:15:33;23.30;53.40
16273;DHT22;8244;50.044;9.006;2023-06-04T19:20:35;23.10;54.40
16273;DHT22;8244;50.044;9.006;2023-06-04T19:25:38;22.80;55.30
16273;DHT22;8244;50.044;9.006;2023-06-04T19:30:39;22.50;55.70
16273;DHT22;8244;50.044;9.006;2023-06-04T19:35:41;22.30;56.90
16273;DHT22;8244;50.044;9.006;2023-06-04T19:40:44;22.10;57.70
16273;DHT22;8244;50.044;9.006;2023-06-04T19:45:46;21.90;58.80
16273;DHT22;8244;50.044;9.006;2023-06-04T19:50:49;21.60;59.30
16273;DHT22;8244;50.044;9.006;2023-06-04T19:55:52;21.30;59.40
16273;DHT22;8244;50.044;9.006;2023-06-04T20:00:54;21.10;60.60
16273;DHT22;8244;50.044;9.006;2023-06-04T20:05:56;20.90;60.40
16273;DHT22;8244;50.044;9.006;2023-06-04T20:10:59;20.70;60.80
16273;DHT22;8244;50.044;9.006;2023-06-04T20:16:02;20.60;61.60
16273;DHT22;8244;50.044;9.006;2023-06-04T20:21:04;20.40;61.40
16273;DHT22;8244;50.044;9.006;2023-06-04T20:26:08;20.30;61.60
16273;DHT22;8244;50.044;9.006;2023-06-04T20:31:10;20.20;62.30
16273;DHT22;8244;50.044;9.006;2023-06-04T20:36:12;20.00;63.30
16273;DHT22;8244;50.044;9.006;2023-06-04T20:41:16;19.90;63.20
16273;DHT22;8244;50.044;9.006;2023-06-04T20:46:18;19.70;63.40
16273;DHT22;8244;50.044;9.006;2023-06-04T20:51:20;19.60;63.40
16273;DHT22;8244;50.044;9.006;2023-06-04T20:56:23;19.50;64.10
16273;DHT22;8244;50.044;9.006;2023-06-04T21:01:26;19.40;63.60
16273;DHT22;8244;50.044;9.006;2023-06-04T21:06:28;19.30;64.20
16273;DHT22;8244;50.044;9.006;2023-06-04T21:11:31;19.20;65.10
16273;DHT22;8244;50.044;9.006;2023-06-04T21:16:33;19.10;64.90
16273;DHT22;8244;50.044;9.006;2023-06-04T21:21:35;18.90;64.70
16273;DHT22;8244;50.044;9.006;2023-06-04T21:26:39;18.90;64.10
16273;DHT22;8244;50.044;9.006;2023-06-04T21:31:41;18.80;64.00
16273;DHT22;8244;50.044;9.006;2023-06-04T21:36:43;18.70;63.70
16273;DHT22;8244;50.044;9.006;2023-06-04T21:41:46;18.60;63.30
16273;DHT22;8244;50.044;9.006;2023-06-04T21:46:48;18.40;62.90
16273;DHT22;8244;50.044;9.006;2023-06-04T21:51:49;18.30;63.20
16273;DHT22;8244;50.044;9.006;2023-06-04T21:56:53;18.20;63.60
16273;DHT22;8244;50.044;9.006;2023-06-04T22:01:54;18.10;63.80
16273;DHT22;8244;50.044;9.006;2023-06-04T22:06:57;18.00;64.20
16273;DHT22;8244;50.044;9.006;2023-06-04T22:12:01;17.90;64.30
16273;DHT22;8244;50.044;9.006;2023-06-04T22:17:03;17.80;64.80
16273;DHT22;8244;50.044;9.006;2023-06-04T22:22:05;17.60;65.30
16273;DHT22;8244;50.044;9.006;2023-06-04T22:27:08;17.50;65.70
16273;DHT22;8244;50.044;9.006;2023-06-04T22:32:09;17.40;65.90
16273;DHT22;8244;50.044;9.006;2023-06-04T22:37:11;17.20;66.90
16273;DHT22;8244;50.044;9.006;2023-06-04T22:42:14;17.10;66.20
16273;DHT22;8244;50.044;9.006;2023-06-04T22:47:16;17.00;66.20
16273;DHT22;8244;50.044;9.006;2023-06-04T22:52:18;17.00;66.10
16273;DHT22;8244;50.044;9.006;2023-06-04T22:57:21;16.80;66.50
16273;DHT22;8244;50.044;9.006;2023-06-04T23:02:23;16.80;67.10
16273;DHT22;8244;50.044;9.006;2023-06-04T23:07:25;16.70;67.00
16273;DHT22;8244;50.044;9.006;2023-06-04T23:12:28;16.70;67.10
16273;DHT22;8244;50.044;9.006;2023-06-04T23:17:29;16.60;66.50
16273;DHT22;8244;50.044;9.006;2023-06-04T23:22:31;16.50;66.00
16273;DHT22;8244;50.044;9.006;2023-06-04T23:27:34;16.40;68.60
16273;DHT22;8244;50.044;9.006;2023-06-04T23:32:36;16.30;68.60
16273;DHT22;8244;50.044;9.006;2023-06-04T23:37:38;16.30;69.60
16273;DHT22;8244;50.044;9.006;2023-06-04T23:42:41;16.20;70.20
16273;DHT22;8244;50.044;9.006;2023-06-04T23:47:43;16.10;69.60
16273;DHT22;8244;50.044;9.006;2023-06-04T23:52:45;16.10;70.50
16273;DHT22;8244;50.044;9.006;2023-06-04T23:57:48;16.00;71.10
